sensor_id;sensor_type;location;lat;lon;timestamp;pressure;altitude;pressure_sealevel;temperature;humidity
76337;BME280;65157;50.082;18.178;2023-12-20T00:00:09;98770.27;;;5.72;68.30
76337;BME280;65157;50.082;18.178;2023-12-20T00:02:36;98767.86;;;5.71;68.18
76337;BME280;65157;50.082;18.178;2023-12-20T00:05:04;98764.53;;;5.71;67.70
76337;BME280;65157;50.082;18.178;2023-12-20T00:07:30;98760.64;;;5.72;67.17
76337;BME280;65157;50.082;18.178;2023-12-20T00:09:57;98763.77;;;5.73;67.39
76337;BME280;65157;50.082;18.178;2023-12-20T00:12:23;98762.95;;;5.71;67.36
76337;BME280;65157;50.082;18.178;2023-12-20T00:14:50;98763.57;;;5.68;67.25
76337;BME280;65157;50.082;18.178;2023-12-20T00:17:17;98767.33;;;5.64;67.18
76337;BME280;65157;50.082;18.178;2023-12-20T00:19:43;98758.88;;;5.61;67.22
76337;BME280;65157;50.082;18.178;2023-12-20T00:22:10;98770.01;;;5.57;66.92
76337;BME280;65157;50.082;18.178;2023-12-20T00:24:36;98768.36;;;5.54;67.06
76337;BME280;65157;50.082;18.178;2023-12-20T00:27:03;98761.39;;;5.53;66.64
76337;BME280;65157;50.082;18.178;2023-12-20T00:29:30;98763.79;;;5.55;66.10
76337;BME280;65157;50.082;18.178;2023-12-20T00:31:57;98761.29;;;5.57;66.59
76337;BME280;65157;50.082;18.178;2023-12-20T00:34:23;98752.48;;;5.58;66.47
76337;BME280;65157;50.082;18.178;2023-12-20T00:36:50;98757.02;;;5.58;66.39
76337;BME280;65157;50.082;18.178;2023-12-20T00:39:16;98760.11;;;5.60;65.33
76337;BME280;65157;50.082;18.178;2023-12-20T00:41:43;98753.11;;;5.66;64.67
76337;BME280;65157;50.082;18.178;2023-12-20T00:44:09;98746.04;;;5.74;62.90
76337;BME280;65157;50.082;18.178;2023-12-20T00:46:36;98739.83;;;5.83;62.76
76337;BME280;65157;50.082;18.178;2023-12-20T00:49:03;98732.36;;;5.92;61.31
76337;BME280;65157;50.082;18.178;2023-12-20T00:51:29;98728.44;;;6.05;60.90
76337;BME280;65157;50.082;18.178;2023-12-20T00:53:56;98721.30;;;6.15;60.93
76337;BME280;65157;50.082;18.178;2023-12-20T00:56:22;98731.08;;;6.21;60.23
76337;BME280;65157;50.082;18.178;2023-12-20T00:58:49;98724.23;;;6.26;60.03
76337;BME280;65157;50.082;18.178;2023-12-20T01:01:16;98722.16;;;6.31;59.27
76337;BME280;65157;50.082;18.178;2023-12-20T01:03:43;98716.66;;;6.38;58.67
76337;BME280;65157;50.082;18.178;2023-12-20T01:06:09;98709.80;;;6.44;59.09
76337;BME280;65157;50.082;18.178;2023-12-20T01:08:37;98706.71;;;6.47;58.78
76337;BME280;65157;50.082;18.178;2023-12-20T01:11:04;98692.05;;;6.50;58.28
76337;BME280;65157;50.082;18.178;2023-12-20T01:13:31;98706.18;;;6.53;58.61
76337;BME280;65157;50.082;18.178;2023-12-20T01:15:58;98702.98;;;6.54;58.88
76337;BME280;65157;50.082;18.178;2023-12-20T01:18:24;98705.27;;;6.53;57.83
76337;BME280;65157;50.082;18.178;2023-12-20T01:20:51;98707.72;;;6.54;58.31
76337;BME280;65157;50.082;18.178;2023-12-20T01:23:18;98699.91;;;6.56;57.95
76337;BME280;65157;50.082;18.178;2023-12-20T01:25:44;98692.18;;;6.56;57.27
76337;BME280;65157;50.082;18.178;2023-12-20T01:28:11;98688.41;;;6.59;56.74
76337;BME280;65157;50.082;18.178;2023-12-20T01:30:37;98686.65;;;6.64;57.01
76337;BME280;65157;50.082;18.178;2023-12-20T01:33:05;98674.21;;;6.63;57.02
76337;BME280;65157;50.082;18.178;2023-12-20T01:35:32;98680.14;;;6.65;57.54
76337;BME280;65157;50.082;18.178;2023-12-20T01:37:58;98684.20;;;6.64;57.35
76337;BME280;65157;50.082;18.178;2023-12-20T01:40:25;98683.52;;;6.63;56.99
76337;BME280;65157;50.082;18.178;2023-12-20T01:43:06;98688.27;;;6.63;57.04
76337;BME280;65157;50.082;18.178;2023-12-20T01:45:33;98688.46;;;6.62;57.34
76337;BME280;65157;50.082;18.178;2023-12-20T01:48:00;98679.21;;;6.61;56.88
76337;BME280;65157;50.082;18.178;2023-12-20T01:50:28;98677.75;;;6.63;56.15
76337;BME280;65157;50.082;18.178;2023-12-20T01:52:57;98681.23;;;6.63;55.67
76337;BME280;65157;50.082;18.178;2023-12-20T01:55:25;98662.54;;;6.66;54.86
76337;BME280;65157;50.082;18.178;2023-12-20T01:57:54;98661.23;;;6.69;55.19
76337;BME280;65157;50.082;18.178;2023-12-20T02:00:21;98674.13;;;6.71;55.03
76337;BME280;65157;50.082;18.178;2023-12-20T02:02:50;98665.34;;;6.72;55.36
76337;BME280;65157;50.082;18.178;2023-12-20T02:05:17;98673.34;;;6.73;54.87
76337;BME280;65157;50.082;18.178;2023-12-20T02:07:44;98664.91;;;6.73;54.13
76337;BME280;65157;50.082;18.178;2023-12-20T02:10:10;98659.73;;;6.76;54.22
76337;BME280;65157;50.082;18.178;2023-12-20T02:12:37;98655.71;;;6.76;54.94
76337;BME280;65157;50.082;18.178;2023-12-20T02:15:04;98651.17;;;6.75;54.05
76337;BME280;65157;50.082;18.178;2023-12-20T02:17:32;98646.10;;;6.75;54.44
76337;BME280;65157;50.082;18.178;2023-12-20T02:19:59;98646.70;;;6.73;54.79
76337;BME280;65157;50.082;18.178;2023-12-20T02:22:25;98650.63;;;6.71;55.04
76337;BME280;65157;50.082;18.178;2023-12-20T02:24:52;98649.67;;;6.68;54.95
76337;BME280;65157;50.082;18.178;2023-12-20T02:27:19;98646.06;;;6.66;55.54
76337;BME280;65157;50.082;18.178;2023-12-20T02:29:47;98638.11;;;6.63;55.81
76337;BME280;65157;50.082;18.178;2023-12-20T02:32:14;98639.42;;;6.60;56.99
76337;BME280;65157;50.082;18.178;2023-12-20T02:34:40;98640.80;;;6.57;58.46
76337;BME280;65157;50.082;18.178;2023-12-20T02:37:07;98635.58;;;6.51;59.95
76337;BME280;65157;50.082;18.178;2023-12-20T02:39:33;98639.16;;;6.44;61.28
76337;BME280;65157;50.082;18.178;2023-12-20T02:42:00;98639.42;;;6.31;62.43
76337;BME280;65157;50.082;18.178;2023-12-20T02:44:26;98643.41;;;6.17;63.46
76337;BME280;65157;50.082;18.178;2023-12-20T02:46:53;98644.10;;;6.02;64.11
76337;BME280;65157;50.082;18.178;2023-12-20T02:49:20;98653.95;;;5.91;65.43
76337;BME280;65157;50.082;18.178;2023-12-20T02:51:46;98656.18;;;5.81;66.17
76337;BME280;65157;50.082;18.178;2023-12-20T02:54:13;98653.17;;;5.71;66.86
76337;BME280;65157;50.082;18.178;2023-12-20T02:56:40;98647.67;;;5.62;68.00
76337;BME280;65157;50.082;18.178;2023-12-20T02:59:06;98641.73;;;5.51;68.60
76337;BME280;65157;50.082;18.178;2023-12-20T03:01:33;98648.63;;;5.43;69.23
76337;BME280;65157;50.082;18.178;2023-12-20T03:04:00;98654.96;;;5.36;69.56
76337;BME280;65157;50.082;18.178;2023-12-20T03:06:27;98650.77;;;5.30;70.45
76337;BME280;65157;50.082;18.178;2023-12-20T03:08:53;98642.74;;;5.24;70.74
76337;BME280;65157;50.082;18.178;2023-12-20T03:11:20;98636.04;;;5.20;71.08
76337;BME280;65157;50.082;18.178;2023-12-20T03:13:47;98635.94;;;5.18;71.09
76337;BME280;65157;50.082;18.178;2023-12-20T03:16:13;98634.07;;;5.16;71.53
76337;BME280;65157;50.082;18.178;2023-12-20T03:18:40;98632.02;;;5.14;71.84
76337;BME280;65157;50.082;18.178;2023-12-20T03:21:06;98627.92;;;5.11;72.24
76337;BME280;65157;50.082;18.178;2023-12-20T03:23:35;98637.16;;;5.06;72.34
76337;BME280;65157;50.082;18.178;2023-12-20T03:26:02;98637.79;;;5.03;72.75
76337;BME280;65157;50.082;18.178;2023-12-20T03:28:29;98635.66;;;4.98;73.27
76337;BME280;65157;50.082;18.178;2023-12-20T03:30:56;98634.56;;;4.93;73.25
76337;BME280;65157;50.082;18.178;2023-12-20T03:33:22;98640.01;;;4.93;73.61
76337;BME280;65157;50.082;18.178;2023-12-20T03:35:49;98638.29;;;4.92;74.01
76337;BME280;65157;50.082;18.178;2023-12-20T03:38:15;98635.55;;;4.90;74.11
76337;BME280;65157;50.082;18.178;2023-12-20T03:40:42;98632.25;;;4.89;73.57
76337;BME280;65157;50.082;18.178;2023-12-20T03:43:09;98637.80;;;4.91;73.56
76337;BME280;65157;50.082;18.178;2023-12-20T03:45:35;98648.10;;;4.91;73.64
76337;BME280;65157;50.082;18.178;2023-12-20T03:48:02;98645.79;;;4.92;73.67
76337;BME280;65157;50.082;18.178;2023-12-20T03:50:29;98641.36;;;4.94;74.14
76337;BME280;65157;50.082;18.178;2023-12-20T03:52:55;98635.61;;;4.94;74.62
76337;BME280;65157;50.082;18.178;2023-12-20T03:55:22;98627.73;;;4.94;74.90
76337;BME280;65157;50.082;18.178;2023-12-20T03:57:48;98625.85;;;4.93;74.94
76337;BME280;65157;50.082;18.178;2023-12-20T04:00:15;98627.15;;;4.90;74.94
76337;BME280;65157;50.082;18.178;2023-12-20T04:02:42;98635.08;;;4.89;75.30
76337;BME280;65157;50.082;18.178;2023-12-20T04:05:10;98628.17;;;4.85;75.30
76337;BME280;65157;50.082;18.178;2023-12-20T04:07:38;98626.63;;;4.84;75.43
76337;BME280;65157;50.082;18.178;2023-12-20T04:10:05;98624.86;;;4.85;75.78
76337;BME280;65157;50.082;18.178;2023-12-20T04:12:32;98622.41;;;4.85;75.71
76337;BME280;65157;50.082;18.178;2023-12-20T04:14:59;98609.81;;;4.85;75.27
76337;BME280;65157;50.082;18.178;2023-12-20T04:17:26;98605.44;;;4.85;75.08
76337;BME280;65157;50.082;18.178;2023-12-20T04:19:52;98611.20;;;4.85;75.19
76337;BME280;65157;50.082;18.178;2023-12-20T04:22:19;98607.20;;;4.85;74.81
76337;BME280;65157;50.082;18.178;2023-12-20T04:24:45;98613.11;;;4.86;75.18
76337;BME280;65157;50.082;18.178;2023-12-20T04:27:12;98609.42;;;4.87;75.09
76337;BME280;65157;50.082;18.178;2023-12-20T04:29:38;98606.79;;;4.87;75.46
76337;BME280;65157;50.082;18.178;2023-12-20T04:32:05;98606.92;;;4.88;75.79
76337;BME280;65157;50.082;18.178;2023-12-20T04:34:32;98604.98;;;4.89;75.54
76337;BME280;65157;50.082;18.178;2023-12-20T04:36:59;98610.07;;;4.88;75.27
76337;BME280;65157;50.082;18.178;2023-12-20T04:39:25;98607.28;;;4.88;75.31
76337;BME280;65157;50.082;18.178;2023-12-20T04:41:52;98607.44;;;4.89;75.31
76337;BME280;65157;50.082;18.178;2023-12-20T04:44:19;98614.62;;;4.88;75.20
76337;BME280;65157;50.082;18.178;2023-12-20T04:46:45;98616.91;;;4.88;75.31
76337;BME280;65157;50.082;18.178;2023-12-20T04:49:12;98612.08;;;4.86;75.09
76337;BME280;65157;50.082;18.178;2023-12-20T04:51:39;98610.73;;;4.84;74.98
76337;BME280;65157;50.082;18.178;2023-12-20T04:54:05;98608.45;;;4.84;75.11
76337;BME280;65157;50.082;18.178;2023-12-20T04:56:32;98597.63;;;4.78;74.93
76337;BME280;65157;50.082;18.178;2023-12-20T04:58:58;98606.45;;;4.80;75.19
76337;BME280;65157;50.082;18.178;2023-12-20T05:01:25;98602.67;;;4.78;75.19
76337;BME280;65157;50.082;18.178;2023-12-20T05:03:52;98607.09;;;4.77;75.53
76337;BME280;65157;50.082;18.178;2023-12-20T05:06:18;98610.99;;;4.75;75.58
76337;BME280;65157;50.082;18.178;2023-12-20T05:08:45;98607.41;;;4.72;75.74
76337;BME280;65157;50.082;18.178;2023-12-20T05:11:11;98604.31;;;4.71;75.66
76337;BME280;65157;50.082;18.178;2023-12-20T05:13:38;98606.80;;;4.70;76.32
76337;BME280;65157;50.082;18.178;2023-12-20T05:16:05;98607.78;;;4.65;76.28
76337;BME280;65157;50.082;18.178;2023-12-20T05:18:32;98611.36;;;4.62;76.45
76337;BME280;65157;50.082;18.178;2023-12-20T05:20:59;98616.31;;;4.61;76.58
76337;BME280;65157;50.082;18.178;2023-12-20T05:23:25;98616.67;;;4.60;76.71
76337;BME280;65157;50.082;18.178;2023-12-20T05:25:52;98618.42;;;4.60;76.99
76337;BME280;65157;50.082;18.178;2023-12-20T05:28:18;98620.05;;;4.58;77.16
76337;BME280;65157;50.082;18.178;2023-12-20T05:30:45;98619.04;;;4.56;77.11
76337;BME280;65157;50.082;18.178;2023-12-20T05:33:12;98617.70;;;4.55;77.83
76337;BME280;65157;50.082;18.178;2023-12-20T05:35:38;98620.02;;;4.52;78.04
76337;BME280;65157;50.082;18.178;2023-12-20T05:38:05;98616.94;;;4.50;78.19
76337;BME280;65157;50.082;18.178;2023-12-20T05:40:33;98614.03;;;4.48;78.13
76337;BME280;65157;50.082;18.178;2023-12-20T05:43:00;98614.05;;;4.47;78.07
76337;BME280;65157;50.082;18.178;2023-12-20T05:45:26;98621.23;;;4.47;78.43
76337;BME280;65157;50.082;18.178;2023-12-20T05:47:53;98619.70;;;4.46;78.47
76337;BME280;65157;50.082;18.178;2023-12-20T05:50:20;98627.04;;;4.45;78.71
76337;BME280;65157;50.082;18.178;2023-12-20T05:52:46;98626.77;;;4.42;78.64
76337;BME280;65157;50.082;18.178;2023-12-20T05:55:13;98625.05;;;4.42;78.81
76337;BME280;65157;50.082;18.178;2023-12-20T05:57:39;98619.02;;;4.39;78.87
76337;BME280;65157;50.082;18.178;2023-12-20T06:00:07;98628.67;;;4.37;79.05
76337;BME280;65157;50.082;18.178;2023-12-20T06:02:34;98630.18;;;4.33;79.41
76337;BME280;65157;50.082;18.178;2023-12-20T06:05:00;98618.21;;;4.24;79.48
76337;BME280;65157;50.082;18.178;2023-12-20T06:07:27;98634.16;;;4.28;79.64
76337;BME280;65157;50.082;18.178;2023-12-20T06:09:54;98633.05;;;4.24;80.15
76337;BME280;65157;50.082;18.178;2023-12-20T06:12:20;98642.21;;;4.21;80.76
76337;BME280;65157;50.082;18.178;2023-12-20T06:14:47;98647.05;;;4.16;80.97
76337;BME280;65157;50.082;18.178;2023-12-20T06:17:13;98631.84;;;4.04;81.16
76337;BME280;65157;50.082;18.178;2023-12-20T06:19:41;98648.77;;;4.11;81.32
76337;BME280;65157;50.082;18.178;2023-12-20T06:22:08;98649.88;;;4.09;81.94
76337;BME280;65157;50.082;18.178;2023-12-20T06:24:35;98653.81;;;4.05;82.35
76337;BME280;65157;50.082;18.178;2023-12-20T06:27:01;98656.15;;;4.02;82.29
76337;BME280;65157;50.082;18.178;2023-12-20T06:29:28;98660.23;;;3.99;82.26
76337;BME280;65157;50.082;18.178;2023-12-20T06:31:54;98659.25;;;3.96;82.58
76337;BME280;65157;50.082;18.178;2023-12-20T06:34:21;98667.14;;;3.95;82.85
76337;BME280;65157;50.082;18.178;2023-12-20T06:36:47;98666.84;;;3.93;83.24
76337;BME280;65157;50.082;18.178;2023-12-20T06:39:14;98667.09;;;3.90;83.23
76337;BME280;65157;50.082;18.178;2023-12-20T06:41:41;98669.95;;;3.88;82.95
76337;BME280;65157;50.082;18.178;2023-12-20T06:44:08;98677.81;;;3.88;82.91
76337;BME280;65157;50.082;18.178;2023-12-20T06:46:34;98673.52;;;3.85;83.09
76337;BME280;65157;50.082;18.178;2023-12-20T06:49:01;98663.61;;;3.76;83.21
76337;BME280;65157;50.082;18.178;2023-12-20T06:51:28;98683.36;;;3.82;83.22
76337;BME280;65157;50.082;18.178;2023-12-20T06:53:54;98685.12;;;3.81;83.47
76337;BME280;65157;50.082;18.178;2023-12-20T06:56:21;98683.25;;;3.78;83.50
76337;BME280;65157;50.082;18.178;2023-12-20T06:58:48;98685.54;;;3.79;84.26
76337;BME280;65157;50.082;18.178;2023-12-20T07:01:15;98683.67;;;3.77;84.21
76337;BME280;65157;50.082;18.178;2023-12-20T07:03:42;98682.20;;;3.73;83.61
76337;BME280;65157;50.082;18.178;2023-12-20T07:06:08;98685.84;;;3.73;84.44
76337;BME280;65157;50.082;18.178;2023-12-20T07:08:35;98687.30;;;3.70;84.73
76337;BME280;65157;50.082;18.178;2023-12-20T07:11:02;98687.19;;;3.68;84.50
76337;BME280;65157;50.082;18.178;2023-12-20T07:13:30;98689.13;;;3.67;84.65
76337;BME280;65157;50.082;18.178;2023-12-20T07:15:57;98688.29;;;3.65;84.95
76337;BME280;65157;50.082;18.178;2023-12-20T07:18:23;98692.31;;;3.65;84.77
76337;BME280;65157;50.082;18.178;2023-12-20T07:20:50;98692.45;;;3.67;84.49
76337;BME280;65157;50.082;18.178;2023-12-20T07:23:16;98689.97;;;3.69;84.54
76337;BME280;65157;50.082;18.178;2023-12-20T07:25:43;98694.64;;;3.70;84.90
76337;BME280;65157;50.082;18.178;2023-12-20T07:28:10;98696.39;;;3.70;84.50
76337;BME280;65157;50.082;18.178;2023-12-20T07:30:36;98706.98;;;3.72;84.79
76337;BME280;65157;50.082;18.178;2023-12-20T07:33:03;98701.42;;;3.71;85.39
76337;BME280;65157;50.082;18.178;2023-12-20T07:35:30;98706.52;;;3.70;85.30
76337;BME280;65157;50.082;18.178;2023-12-20T07:37:56;98704.23;;;3.71;85.08
76337;BME280;65157;50.082;18.178;2023-12-20T07:40:23;98699.67;;;3.71;85.03
76337;BME280;65157;50.082;18.178;2023-12-20T07:42:50;98694.94;;;3.72;85.48
76337;BME280;65157;50.082;18.178;2023-12-20T07:45:16;98689.01;;;3.72;85.23
76337;BME280;65157;50.082;18.178;2023-12-20T07:47:43;98687.95;;;3.72;85.41
76337;BME280;65157;50.082;18.178;2023-12-20T07:50:10;98689.02;;;3.72;85.49
76337;BME280;65157;50.082;18.178;2023-12-20T07:52:37;98696.36;;;3.72;85.58
76337;BME280;65157;50.082;18.178;2023-12-20T07:55:04;98691.98;;;3.72;85.35
76337;BME280;65157;50.082;18.178;2023-12-20T07:57:31;98693.67;;;3.74;85.26
76337;BME280;65157;50.082;18.178;2023-12-20T08:00:01;98692.05;;;3.76;85.64
76337;BME280;65157;50.082;18.178;2023-12-20T08:02:28;98692.76;;;3.76;86.14
76337;BME280;65157;50.082;18.178;2023-12-20T08:04:54;98690.90;;;3.74;85.91
76337;BME280;65157;50.082;18.178;2023-12-20T08:07:21;98688.06;;;3.75;85.69
76337;BME280;65157;50.082;18.178;2023-12-20T08:09:47;98689.05;;;3.77;85.91
76337;BME280;65157;50.082;18.178;2023-12-20T08:12:14;98682.41;;;3.78;85.98
76337;BME280;65157;50.082;18.178;2023-12-20T08:14:40;98683.96;;;3.79;85.95
76337;BME280;65157;50.082;18.178;2023-12-20T08:17:07;98683.79;;;3.79;86.25
76337;BME280;65157;50.082;18.178;2023-12-20T08:19:33;98682.74;;;3.78;85.91
76337;BME280;65157;50.082;18.178;2023-12-20T08:22:00;98683.08;;;3.79;86.11
76337;BME280;65157;50.082;18.178;2023-12-20T08:24:26;98680.46;;;3.79;86.42
76337;BME280;65157;50.082;18.178;2023-12-20T08:26:53;98685.55;;;3.78;86.38
76337;BME280;65157;50.082;18.178;2023-12-20T08:29:20;98684.17;;;3.77;86.32
76337;BME280;65157;50.082;18.178;2023-12-20T08:31:46;98685.39;;;3.77;86.04
76337;BME280;65157;50.082;18.178;2023-12-20T08:34:17;98693.04;;;3.78;86.36
76337;BME280;65157;50.082;18.178;2023-12-20T08:36:44;98693.38;;;3.79;86.09
76337;BME280;65157;50.082;18.178;2023-12-20T08:39:10;98691.77;;;3.81;86.17
76337;BME280;65157;50.082;18.178;2023-12-20T08:41:37;98689.68;;;3.80;86.16
76337;BME280;65157;50.082;18.178;2023-12-20T08:44:04;98691.56;;;3.82;86.11
76337;BME280;65157;50.082;18.178;2023-12-20T08:46:31;98691.17;;;3.83;86.10
76337;BME280;65157;50.082;18.178;2023-12-20T08:48:57;98695.31;;;3.85;86.07
76337;BME280;65157;50.082;18.178;2023-12-20T08:51:24;98693.17;;;3.88;86.02
76337;BME280;65157;50.082;18.178;2023-12-20T08:53:51;98699.91;;;3.90;86.25
76337;BME280;65157;50.082;18.178;2023-12-20T08:56:18;98697.46;;;3.90;86.30
76337;BME280;65157;50.082;18.178;2023-12-20T08:58:46;98699.73;;;3.91;86.27
76337;BME280;65157;50.082;18.178;2023-12-20T09:01:13;98697.08;;;3.92;86.16
76337;BME280;65157;50.082;18.178;2023-12-20T09:03:40;98697.23;;;3.93;86.18
76337;BME280;65157;50.082;18.178;2023-12-20T09:06:07;98701.59;;;3.94;86.50
76337;BME280;65157;50.082;18.178;2023-12-20T09:08:33;98703.30;;;3.94;86.77
76337;BME280;65157;50.082;18.178;2023-12-20T09:11:00;98699.59;;;3.96;86.54
76337;BME280;65157;50.082;18.178;2023-12-20T09:13:28;98701.27;;;3.98;86.73
76337;BME280;65157;50.082;18.178;2023-12-20T09:15:57;98702.30;;;3.99;86.70
76337;BME280;65157;50.082;18.178;2023-12-20T09:18:24;98701.91;;;4.02;86.72
76337;BME280;65157;50.082;18.178;2023-12-20T09:20:51;98694.53;;;4.04;86.66
76337;BME280;65157;50.082;18.178;2023-12-20T09:23:17;98697.26;;;4.06;86.43
76337;BME280;65157;50.082;18.178;2023-12-20T09:25:44;98700.16;;;4.09;86.59
76337;BME280;65157;50.082;18.178;2023-12-20T09:28:11;98701.88;;;4.10;86.91
76337;BME280;65157;50.082;18.178;2023-12-20T09:30:38;98705.69;;;4.11;86.67
76337;BME280;65157;50.082;18.178;2023-12-20T09:33:05;98703.42;;;4.11;86.99
76337;BME280;65157;50.082;18.178;2023-12-20T09:35:32;98701.80;;;4.12;86.97
76337;BME280;65157;50.082;18.178;2023-12-20T09:37:58;98700.73;;;4.13;86.81
76337;BME280;65157;50.082;18.178;2023-12-20T09:40:26;98703.00;;;4.14;86.82
76337;BME280;65157;50.082;18.178;2023-12-20T09:43:11;98700.16;;;4.15;86.76
76337;BME280;65157;50.082;18.178;2023-12-20T09:45:40;98696.43;;;4.18;86.61
76337;BME280;65157;50.082;18.178;2023-12-20T09:48:07;98694.81;;;4.20;86.85
76337;BME280;65157;50.082;18.178;2023-12-20T09:50:37;98694.23;;;4.22;86.73
76337;BME280;65157;50.082;18.178;2023-12-20T09:53:04;98689.63;;;4.24;86.67
76337;BME280;65157;50.082;18.178;2023-12-20T09:55:32;98689.42;;;4.25;86.66
76337;BME280;65157;50.082;18.178;2023-12-20T09:57:59;98694.60;;;4.28;86.82
76337;BME280;65157;50.082;18.178;2023-12-20T10:00:26;98690.55;;;4.29;86.59
76337;BME280;65157;50.082;18.178;2023-12-20T10:03:00;98689.63;;;4.31;86.60
76337;BME280;65157;50.082;18.178;2023-12-20T10:05:30;98690.29;;;4.33;86.53
76337;BME280;65157;50.082;18.178;2023-12-20T10:07:57;98691.59;;;4.36;86.35
76337;BME280;65157;50.082;18.178;2023-12-20T10:10:24;98690.13;;;4.38;86.80
76337;BME280;65157;50.082;18.178;2023-12-20T10:13:05;98682.23;;;4.39;86.74
76337;BME280;65157;50.082;18.178;2023-12-20T10:15:35;98684.98;;;4.41;86.52
76337;BME280;65157;50.082;18.178;2023-12-20T10:18:03;98687.74;;;4.43;86.68
76337;BME280;65157;50.082;18.178;2023-12-20T10:20:30;98682.10;;;4.45;86.52
76337;BME280;65157;50.082;18.178;2023-12-20T10:22:57;98683.27;;;4.47;86.32
76337;BME280;65157;50.082;18.178;2023-12-20T10:25:26;98679.20;;;4.48;86.21
76337;BME280;65157;50.082;18.178;2023-12-20T10:28:10;98675.13;;;4.50;86.11
76337;BME280;65157;50.082;18.178;2023-12-20T10:30:37;98672.27;;;4.52;86.23
76337;BME280;65157;50.082;18.178;2023-12-20T10:33:08;98678.00;;;4.54;86.36
76337;BME280;65157;50.082;18.178;2023-12-20T10:35:36;98677.98;;;4.55;86.29
76337;BME280;65157;50.082;18.178;2023-12-20T10:38:04;98675.30;;;4.56;86.17
76337;BME280;65157;50.082;18.178;2023-12-20T10:40:35;98680.62;;;4.61;86.11
76337;BME280;65157;50.082;18.178;2023-12-20T10:43:03;98677.98;;;4.61;86.00
76337;BME280;65157;50.082;18.178;2023-12-20T10:45:29;98690.27;;;4.65;85.86
76337;BME280;65157;50.082;18.178;2023-12-20T10:47:57;98689.90;;;4.67;85.90
76337;BME280;65157;50.082;18.178;2023-12-20T10:50:24;98685.80;;;4.69;85.81
76337;BME280;65157;50.082;18.178;2023-12-20T10:52:52;98686.79;;;4.71;85.82
76337;BME280;65157;50.082;18.178;2023-12-20T10:55:18;98683.13;;;4.71;85.53
76337;BME280;65157;50.082;18.178;2023-12-20T10:57:47;98679.61;;;4.71;85.57
76337;BME280;65157;50.082;18.178;2023-12-20T11:00:17;98674.88;;;4.73;85.39
76337;BME280;65157;50.082;18.178;2023-12-20T11:02:44;98674.83;;;4.74;85.38
76337;BME280;65157;50.082;18.178;2023-12-20T11:08:10;98668.45;;;4.77;85.00
76337;BME280;65157;50.082;18.178;2023-12-20T11:11:03;98669.73;;;4.81;84.92
76337;BME280;65157;50.082;18.178;2023-12-20T11:13:40;98671.59;;;4.83;84.92
76337;BME280;65157;50.082;18.178;2023-12-20T11:16:07;98670.77;;;4.87;84.91
76337;BME280;65157;50.082;18.178;2023-12-20T11:18:33;98668.28;;;4.89;85.06
76337;BME280;65157;50.082;18.178;2023-12-20T11:21:04;98675.81;;;4.88;84.73
76337;BME280;65157;50.082;18.178;2023-12-20T11:23:34;98675.68;;;4.93;84.92
76337;BME280;65157;50.082;18.178;2023-12-20T11:26:02;98672.52;;;4.93;84.82
76337;BME280;65157;50.082;18.178;2023-12-20T11:28:29;98668.41;;;4.96;84.72
76337;BME280;65157;50.082;18.178;2023-12-20T11:30:57;98677.96;;;4.99;84.52
76337;BME280;65157;50.082;18.178;2023-12-20T11:33:26;98672.65;;;5.01;84.36
76337;BME280;65157;50.082;18.178;2023-12-20T11:35:55;98670.16;;;5.03;84.44
76337;BME280;65157;50.082;18.178;2023-12-20T11:38:23;98664.81;;;5.05;84.71
76337;BME280;65157;50.082;18.178;2023-12-20T11:40:50;98669.23;;;5.10;84.65
76337;BME280;65157;50.082;18.178;2023-12-20T11:43:30;98662.64;;;5.14;84.62
76337;BME280;65157;50.082;18.178;2023-12-20T11:46:02;98649.94;;;5.18;84.26
76337;BME280;65157;50.082;18.178;2023-12-20T11:48:30;98643.15;;;5.22;83.53
76337;BME280;65157;50.082;18.178;2023-12-20T11:50:57;98643.76;;;5.25;83.62
76337;BME280;65157;50.082;18.178;2023-12-20T11:53:23;98637.42;;;5.27;83.73
76337;BME280;65157;50.082;18.178;2023-12-20T11:55:50;98645.37;;;5.30;83.66
76337;BME280;65157;50.082;18.178;2023-12-20T11:58:17;98637.26;;;5.31;83.55
76337;BME280;65157;50.082;18.178;2023-12-20T12:00:44;98634.42;;;5.33;83.27
76337;BME280;65157;50.082;18.178;2023-12-20T12:03:14;98627.73;;;5.34;83.33
76337;BME280;65157;50.082;18.178;2023-12-20T12:05:41;98627.17;;;5.35;83.13
76337;BME280;65157;50.082;18.178;2023-12-20T12:08:08;98618.42;;;5.35;82.71
76337;BME280;65157;50.082;18.178;2023-12-20T12:10:34;98617.59;;;5.34;82.90
76337;BME280;65157;50.082;18.178;2023-12-20T12:13:01;98619.02;;;5.33;82.74
76337;BME280;65157;50.082;18.178;2023-12-20T12:15:29;98615.58;;;5.31;82.83
76337;BME280;65157;50.082;18.178;2023-12-20T12:17:56;98618.95;;;5.29;82.94
76337;BME280;65157;50.082;18.178;2023-12-20T12:20:23;98617.38;;;5.30;82.89
76337;BME280;65157;50.082;18.178;2023-12-20T12:23:04;98621.56;;;5.31;82.76
76337;BME280;65157;50.082;18.178;2023-12-20T12:25:32;98625.73;;;5.31;83.12
76337;BME280;65157;50.082;18.178;2023-12-20T12:27:59;98625.37;;;5.31;82.89
76337;BME280;65157;50.082;18.178;2023-12-20T12:30:26;98619.30;;;5.29;82.99
76337;BME280;65157;50.082;18.178;2023-12-20T12:32:53;98625.42;;;5.30;82.75
76337;BME280;65157;50.082;18.178;2023-12-20T12:35:20;98620.89;;;5.29;82.48
76337;BME280;65157;50.082;18.178;2023-12-20T12:37:46;98623.42;;;5.27;82.27
76337;BME280;65157;50.082;18.178;2023-12-20T12:40:14;98620.67;;;5.25;82.09
76337;BME280;65157;50.082;18.178;2023-12-20T12:42:43;98616.00;;;5.23;81.90
76337;BME280;65157;50.082;18.178;2023-12-20T12:45:11;98622.96;;;5.24;82.35
76337;BME280;65157;50.082;18.178;2023-12-20T12:47:38;98629.00;;;5.28;82.45
76337;BME280;65157;50.082;18.178;2023-12-20T12:50:05;98621.84;;;5.27;82.23
76337;BME280;65157;50.082;18.178;2023-12-20T12:52:32;98606.34;;;5.25;81.94
76337;BME280;65157;50.082;18.178;2023-12-20T12:54:58;98591.59;;;5.37;81.73
76337;BME280;65157;50.082;18.178;2023-12-20T12:57:25;98581.61;;;5.69;81.46
76337;BME280;65157;50.082;18.178;2023-12-20T12:59:52;98575.21;;;5.93;81.13
76337;BME280;65157;50.082;18.178;2023-12-20T13:02:18;98578.76;;;6.41;79.86